createdAt,value
2017-09-22T00:00:00.182Z,80.16
2017-09-22T00:02:01.670Z,80.16
2017-09-22T00:04:03.145Z,80.11
2017-09-22T00:06:04.718Z,79.96
2017-09-22T00:08:47.166Z,79.96
2017-09-22T00:10:48.582Z,79.93
2017-09-22T00:12:50.205Z,80.02
2017-09-22T00:14:51.640Z,80.21
2017-09-22T00:16:53.055Z,80.59
2017-09-22T00:18:54.484Z,80.16
2017-09-22T00:20:55.907Z,80.21
2017-09-22T00:22:57.397Z,79.54
2017-09-22T00:24:58.885Z,79.54
2017-09-22T00:27:00.413Z,79.54
2017-09-22T00:29:01.895Z,79.44
2017-09-22T00:31:03.392Z,79.93
2017-09-22T00:33:04.866Z,79.64
2017-09-22T00:35:06.348Z,79.64
2017-09-22T00:37:07.894Z,79.54
2017-09-22T00:39:09.394Z,79.25
2017-09-22T00:41:10.902Z,79.64
2017-09-22T00:43:12.389Z,79.44
2017-09-22T00:45:14.217Z,79.83
2017-09-22T00:47:16.065Z,79.64
2017-09-22T00:49:17.613Z,79.54
2017-09-22T00:51:19.136Z,79.93
2017-09-22T00:53:20.628Z,79.83
2017-09-22T00:55:22.168Z,80.40
2017-09-22T00:57:23.640Z,80.11
2017-09-22T00:59:25.080Z,80.59
2017-09-22T01:01:26.940Z,80.50
2017-09-22T01:03:28.407Z,80.40
2017-09-22T01:05:29.924Z,79.93
2017-09-22T01:07:31.477Z,80.30
2017-09-22T01:09:33.071Z,80.46
2017-09-22T01:12:15.467Z,80.50
2017-09-22T01:14:16.884Z,80.46
2017-09-22T01:16:18.297Z,80.50
2017-09-22T01:18:19.711Z,80.65
2017-09-22T01:20:21.123Z,80.65
2017-09-22T01:22:22.539Z,80.65
2017-09-22T01:24:23.952Z,80.46
2017-09-22T01:26:25.368Z,80.27
2017-09-22T01:28:26.781Z,80.65
2017-09-22T01:30:28.199Z,80.27
2017-09-22T01:32:29.783Z,79.88
2017-09-22T01:34:31.377Z,79.98
2017-09-22T01:36:32.848Z,79.88
2017-09-22T01:38:34.253Z,80.17
2017-09-22T01:40:35.691Z,80.07
2017-09-22T01:43:18.080Z,80.46
2017-09-22T01:45:19.496Z,80.17
2017-09-22T01:47:20.917Z,80.84
2017-09-22T01:49:22.875Z,81.13
2017-09-22T01:51:24.286Z,81.22
2017-09-22T01:53:26.051Z,81.41
2017-09-22T01:55:27.461Z,81.89
2017-09-22T01:58:10.284Z,81.60
2017-09-22T02:00:11.677Z,81.79
2017-09-22T02:02:13.094Z,81.32
2017-09-22T02:04:14.516Z,81.32
2017-09-22T02:06:15.928Z,81.60
2017-09-22T02:08:17.341Z,82.08
2017-09-22T02:10:18.785Z,81.89
2017-09-22T02:12:20.171Z,82.28
2017-09-22T02:14:21.584Z,81.85
2017-09-22T02:16:22.999Z,82.28
2017-09-22T02:18:24.421Z,82.46
2017-09-22T02:20:26.015Z,82.84
2017-09-22T02:22:27.443Z,83.42
2017-09-22T02:24:28.894Z,82.65
2017-09-22T02:26:30.320Z,82.46
2017-09-22T02:28:31.738Z,82.46
2017-09-22T02:31:14.131Z,82.84
2017-09-22T02:33:15.544Z,82.65
2017-09-22T02:35:16.966Z,82.94
2017-09-22T02:37:18.380Z,82.37
2017-09-22T02:39:19.796Z,82.65
2017-09-22T02:41:21.389Z,82.46
2017-09-22T02:43:22.834Z,83.04
2017-09-22T02:46:05.225Z,82.84
2017-09-22T02:48:06.643Z,83.13
2017-09-22T02:50:08.329Z,83.04
2017-09-22T02:52:09.843Z,83.33
2017-09-22T02:54:11.229Z,82.94
2017-09-22T02:56:12.677Z,83.23
2017-09-22T02:58:14.105Z,83.13
2017-09-22T03:00:15.670Z,83.80
2017-09-22T03:02:17.167Z,83.70
2017-09-22T03:04:18.638Z,83.13
2017-09-22T03:06:20.131Z,82.65
2017-09-22T03:08:21.524Z,83.61
2017-09-22T03:10:23.015Z,84.05
2017-09-22T03:12:24.460Z,83.42
2017-09-22T03:14:25.885Z,83.70
2017-09-22T03:16:27.313Z,83.51
2017-09-22T03:19:10.650Z,83.70
2017-09-22T03:21:11.988Z,83.28
2017-09-22T03:23:14.164Z,83.57
2017-09-22T03:25:15.439Z,84.91
2017-09-22T03:27:16.850Z,84.72
2017-09-22T03:29:18.266Z,84.72
2017-09-22T03:31:19.678Z,84.72
2017-09-22T03:34:02.100Z,84.33
2017-09-22T03:36:03.514Z,84.81
2017-09-22T03:38:04.953Z,85.00
2017-09-22T03:40:08.440Z,84.62
2017-09-22T03:42:09.744Z,84.72
2017-09-22T03:44:12.373Z,84.52
2017-09-22T03:46:14.028Z,83.95
2017-09-22T03:48:16.226Z,83.67
2017-09-22T03:50:17.694Z,83.95
2017-09-22T03:52:19.429Z,83.57
2017-09-22T03:54:21.459Z,83.95
2017-09-22T03:56:23.609Z,84.72
2017-09-22T03:58:25.434Z,84.62
2017-09-22T04:00:27.438Z,83.47
2017-09-22T04:02:29.174Z,83.67
2017-09-22T04:04:30.896Z,85.00
2017-09-22T04:06:32.623Z,83.86
2017-09-22T04:08:34.394Z,84.62
2017-09-22T04:10:36.607Z,84.81
2017-09-22T04:12:38.484Z,84.05
2017-09-22T04:14:40.360Z,84.14
2017-09-22T04:16:42.746Z,84.62
2017-09-22T04:18:44.514Z,84.23
2017-09-22T04:20:46.632Z,84.14
2017-09-22T04:22:48.381Z,84.14
2017-09-22T04:24:50.612Z,83.67
2017-09-22T04:26:52.629Z,83.38
2017-09-22T04:28:54.601Z,83.57
2017-09-22T04:30:56.193Z,83.67
2017-09-22T04:32:57.877Z,82.90
2017-09-22T04:34:59.797Z,82.32
2017-09-22T04:37:01.979Z,82.00
2017-09-22T04:39:03.924Z,82.14
2017-09-22T04:41:05.594Z,82.71
2017-09-22T04:43:07.281Z,82.42
2017-09-22T04:45:09.025Z,83.00
2017-09-22T04:47:10.759Z,81.95
2017-09-22T04:49:12.635Z,82.42
2017-09-22T04:51:14.563Z,82.48
2017-09-22T04:53:57.745Z,82.42
2017-09-22T04:55:59.234Z,82.61
2017-09-22T04:58:00.643Z,82.86
2017-09-22T05:00:02.100Z,83.05
2017-09-22T05:02:03.504Z,83.14
2017-09-22T05:04:04.933Z,82.76
2017-09-22T05:06:06.361Z,83.05
2017-09-22T05:08:07.861Z,83.34
2017-09-22T05:10:09.328Z,83.05
2017-09-22T05:12:11.605Z,82.76
2017-09-22T05:14:13.593Z,82.86
2017-09-22T05:16:15.186Z,83.14
2017-09-22T05:18:16.768Z,82.67
2017-09-22T05:20:18.430Z,82.67
2017-09-22T05:22:19.954Z,82.38
2017-09-22T05:24:21.497Z,82.86
2017-09-22T05:26:22.999Z,82.48
2017-09-22T05:28:24.511Z,82.57
2017-09-22T05:30:26.077Z,82.76
2017-09-22T05:32:27.694Z,82.29
2017-09-22T05:34:29.263Z,82.29
2017-09-22T05:36:30.747Z,82.67
2017-09-22T05:38:32.236Z,82.29
2017-09-22T05:40:33.793Z,82.09
2017-09-22T05:42:35.239Z,82.29
2017-09-22T05:44:36.779Z,82.38
2017-09-22T05:46:38.265Z,82.38
2017-09-22T05:48:39.771Z,83.14
2017-09-22T05:50:41.299Z,83.34
2017-09-22T05:52:42.776Z,84.39
2017-09-22T05:54:44.381Z,84.10
2017-09-22T05:56:45.861Z,83.91
2017-09-22T05:58:47.421Z,84.20
2017-09-22T06:00:48.986Z,84.00
2017-09-22T06:02:50.602Z,83.91
2017-09-22T06:04:52.081Z,84.00
2017-09-22T06:06:53.588Z,83.67
2017-09-22T06:08:55.169Z,83.67
2017-09-22T06:10:56.665Z,83.57
2017-09-22T06:12:58.193Z,83.57
2017-09-22T06:14:59.675Z,83.76
2017-09-22T06:17:01.152Z,83.81
2017-09-22T06:19:02.635Z,83.86
2017-09-22T06:21:04.093Z,83.86
2017-09-22T06:23:05.583Z,83.67
2017-09-22T06:25:07.074Z,84.23
2017-09-22T06:27:08.554Z,84.23
2017-09-22T06:29:10.057Z,84.62
2017-09-22T06:31:11.536Z,84.33
2017-09-22T06:33:13.023Z,84.43
2017-09-22T06:35:14.540Z,84.14
2017-09-22T06:37:16.163Z,84.05
2017-09-22T06:39:17.665Z,84.52
2017-09-22T06:41:19.165Z,84.14
2017-09-22T06:44:01.615Z,84.14
2017-09-22T06:46:03.033Z,84.19
2017-09-22T06:48:04.449Z,83.99
2017-09-22T06:50:06.016Z,83.61
2017-09-22T06:52:07.394Z,83.42
2017-09-22T06:54:08.816Z,83.13
2017-09-22T06:56:10.225Z,82.12
2017-09-22T06:58:11.652Z,81.93
2017-09-22T07:00:13.182Z,82.51
2017-09-22T07:02:14.671Z,82.60
2017-09-22T07:04:16.329Z,83.13
2017-09-22T07:06:17.746Z,83.99
2017-09-22T07:08:19.420Z,83.65
2017-09-22T07:10:20.875Z,83.75
2017-09-22T07:12:22.385Z,83.50
2017-09-22T07:15:05.812Z,81.21
2017-09-22T07:17:07.231Z,81.30
2017-09-22T07:19:08.644Z,81.34
2017-09-22T07:21:10.076Z,81.34
2017-09-22T07:23:11.535Z,80.77
2017-09-22T07:25:12.959Z,80.38
2017-09-22T07:27:14.555Z,80.52
2017-09-22T07:29:16.164Z,78.61
2017-09-22T07:31:17.603Z,78.45
2017-09-22T07:33:19.055Z,77.84
2017-09-22T07:35:20.498Z,79.41
2017-09-22T07:37:21.998Z,78.99
2017-09-22T07:39:23.443Z,78.36
2017-09-22T07:41:25.003Z,75.87
2017-09-22T07:43:26.516Z,75.71
2017-09-22T07:45:28.101Z,76.00
2017-09-22T07:47:29.606Z,74.57
2017-09-22T07:49:31.142Z,77.73
2017-09-22T07:51:32.717Z,73.93
2017-09-22T07:53:34.257Z,71.28
2017-09-22T07:55:35.728Z,68.57
2017-09-22T07:57:37.206Z,65.46
2017-09-22T07:59:38.753Z,64.73
2017-09-22T08:02:21.519Z,59.65
2017-09-22T08:04:22.901Z,56.21
2017-09-22T08:06:24.329Z,55.66
2017-09-22T08:08:26.391Z,54.62
2017-09-22T08:10:27.792Z,55.98
2017-09-22T08:12:29.230Z,54.50
2017-09-22T08:14:30.859Z,55.85
2017-09-22T08:16:32.288Z,56.37
2017-09-22T08:18:33.727Z,59.81
2017-09-22T08:20:35.146Z,62.06
2017-09-22T08:22:36.572Z,63.38
2017-09-22T08:24:38.002Z,64.66
2017-09-22T08:26:39.425Z,65.91
2017-09-22T08:28:40.879Z,66.87
2017-09-22T08:30:42.316Z,67.32
2017-09-22T08:32:43.739Z,69.43
2017-09-22T08:34:45.170Z,70.01
2017-09-22T08:36:46.583Z,70.97
2017-09-22T08:38:48.030Z,69.91
2017-09-22T08:40:49.474Z,69.53
2017-09-22T08:42:50.906Z,70.55
2017-09-22T08:44:52.403Z,69.87
2017-09-22T08:46:53.823Z,70.17
2017-09-22T08:48:55.264Z,71.31
2017-09-22T08:50:56.688Z,71.12
2017-09-22T08:52:58.148Z,72.47
2017-09-22T08:54:59.608Z,71.93
2017-09-22T08:57:01.116Z,72.79
2017-09-22T08:59:02.597Z,69.62
2017-09-22T09:01:04.034Z,69.72
2017-09-22T09:03:05.462Z,70.29
2017-09-22T09:05:47.883Z,70.74
2017-09-22T09:07:49.310Z,71.12
2017-09-22T09:09:50.731Z,71.70
2017-09-22T09:11:52.162Z,73.33
2017-09-22T09:13:53.586Z,70.84
2017-09-22T09:15:55.009Z,71.89
2017-09-22T09:17:56.432Z,70.74
2017-09-22T09:19:57.853Z,71.61
2017-09-22T09:21:59.281Z,71.12
2017-09-22T09:24:00.704Z,71.22
2017-09-22T09:26:02.128Z,71.41
2017-09-22T09:28:03.559Z,71.80
2017-09-22T09:30:04.980Z,71.22
2017-09-22T09:32:06.402Z,71.41
2017-09-22T09:34:07.838Z,71.61
2017-09-22T09:36:09.272Z,72.18
2017-09-22T09:38:10.683Z,71.70
2017-09-22T09:40:12.114Z,71.12
2017-09-22T09:42:13.538Z,71.41
2017-09-22T09:44:14.963Z,72.22
2017-09-22T09:46:16.388Z,71.25
2017-09-22T09:48:17.807Z,71.35
2017-09-22T09:50:19.240Z,71.35
2017-09-22T09:52:20.664Z,72.79
2017-09-22T09:55:03.076Z,73.75
2017-09-22T09:57:04.501Z,73.08
2017-09-22T09:59:06.216Z,71.93
2017-09-22T10:01:07.637Z,72.22
2017-09-22T10:03:09.061Z,71.35
2017-09-22T10:05:10.514Z,73.85
2017-09-22T10:07:11.939Z,73.11
2017-09-22T10:09:13.362Z,71.67
2017-09-22T10:11:14.788Z,74.08
2017-09-22T10:13:16.219Z,72.92
2017-09-22T10:15:17.636Z,71.10
2017-09-22T10:17:19.098Z,71.33
2017-09-22T10:19:20.549Z,69.31
2017-09-22T10:21:21.970Z,68.35
2017-09-22T10:23:23.394Z,68.54
2017-09-22T10:25:24.807Z,68.35
2017-09-22T10:27:26.282Z,67.68
2017-09-22T10:29:27.765Z,67.00
2017-09-22T10:31:29.271Z,68.54
2017-09-22T10:33:30.777Z,70.17
2017-09-22T10:35:32.201Z,68.96
2017-09-22T10:37:33.720Z,68.44
2017-09-22T10:39:35.233Z,68.06
2017-09-22T10:41:36.713Z,68.54
2017-09-22T10:43:38.213Z,68.63
2017-09-22T10:45:39.659Z,68.57
2017-09-22T10:47:41.106Z,68.96
2017-09-22T10:49:42.559Z,69.06
2017-09-22T10:51:44.125Z,68.80
2017-09-22T10:53:45.619Z,68.70
2017-09-22T10:55:47.094Z,68.48
2017-09-22T10:57:48.540Z,69.57
2017-09-22T10:59:50.114Z,67.42
2017-09-22T11:01:51.614Z,68.60
2017-09-22T11:03:53.077Z,68.48
2017-09-22T11:05:54.631Z,67.65
2017-09-22T11:07:56.165Z,67.45
2017-09-22T11:09:57.789Z,67.93
2017-09-22T11:11:59.314Z,66.07
2017-09-22T11:14:00.792Z,68.19
2017-09-22T11:16:02.264Z,68.76
2017-09-22T11:18:03.787Z,68.54
2017-09-22T11:20:05.277Z,70.46
2017-09-22T11:22:06.786Z,71.04
2017-09-22T11:24:08.349Z,70.14
2017-09-22T11:26:09.803Z,70.52
2017-09-22T11:28:11.333Z,73.15
2017-09-22T11:30:12.846Z,72.48
2017-09-22T11:32:14.308Z,73.69
2017-09-22T11:34:15.782Z,72.73
2017-09-22T11:36:17.278Z,74.27
2017-09-22T11:38:18.791Z,74.27
2017-09-22T11:40:20.294Z,73.41
2017-09-22T11:42:21.896Z,73.41
2017-09-22T11:44:23.436Z,73.88
2017-09-22T11:46:25.021Z,74.27
2017-09-22T11:48:26.573Z,75.04
2017-09-22T11:50:28.078Z,75.71
2017-09-22T11:52:29.535Z,74.27
2017-09-22T11:54:31.025Z,73.21
2017-09-22T11:56:32.465Z,74.17
2017-09-22T11:58:33.890Z,75.62
2017-09-22T12:01:16.306Z,75.52
2017-09-22T12:03:17.731Z,75.32
2017-09-22T12:05:19.161Z,75.04
2017-09-22T12:07:20.963Z,75.04
2017-09-22T12:09:22.393Z,74.85
2017-09-22T12:11:23.810Z,73.98
2017-09-22T12:13:25.232Z,73.69
2017-09-22T12:15:26.716Z,73.88
2017-09-22T12:17:28.285Z,73.50
2017-09-22T12:19:29.769Z,74.55
2017-09-22T12:21:31.212Z,73.41
2017-09-22T12:23:32.693Z,73.02
2017-09-22T12:25:34.162Z,75.04
2017-09-22T12:27:35.652Z,74.27
2017-09-22T12:29:37.118Z,74.37
2017-09-22T12:31:38.604Z,74.65
2017-09-22T12:33:40.127Z,74.27
2017-09-22T12:35:41.675Z,74.65
2017-09-22T12:37:43.167Z,74.65
2017-09-22T12:39:44.703Z,75.42
2017-09-22T12:41:46.157Z,77.96
2017-09-22T12:43:47.668Z,76.32
2017-09-22T12:45:49.195Z,76.94
2017-09-22T12:47:50.714Z,75.21
2017-09-22T12:49:52.232Z,74.05
2017-09-22T12:51:53.790Z,75.05
2017-09-22T12:53:55.396Z,71.59
2017-09-22T12:55:56.874Z,71.11
2017-09-22T12:57:58.381Z,71.20
2017-09-22T12:59:59.906Z,71.59
2017-09-22T13:02:01.401Z,71.62
2017-09-22T13:04:02.982Z,70.18
2017-09-22T13:06:04.444Z,69.89
2017-09-22T13:08:05.917Z,69.41
2017-09-22T13:10:07.483Z,69.70
2017-09-22T13:12:09.012Z,68.41
2017-09-22T13:14:10.491Z,69.47
2017-09-22T13:16:12.019Z,68.51
2017-09-22T13:18:13.492Z,68.60
2017-09-22T13:20:14.996Z,69.63
2017-09-22T13:22:16.555Z,68.76
2017-09-22T13:24:18.041Z,69.44
2017-09-22T13:26:19.561Z,69.44
2017-09-22T13:28:21.097Z,71.26
2017-09-22T13:30:22.590Z,71.94
2017-09-22T13:32:24.160Z,71.84
2017-09-22T13:34:25.640Z,69.57
2017-09-22T13:36:27.128Z,69.57
2017-09-22T13:38:28.636Z,69.09
2017-09-22T13:40:30.141Z,71.30
2017-09-22T13:42:31.726Z,71.11
2017-09-22T13:44:33.493Z,71.53
2017-09-22T13:46:35.277Z,69.60
2017-09-22T13:48:36.661Z,69.31
2017-09-22T13:50:38.104Z,69.89
2017-09-22T13:52:39.586Z,70.86
2017-09-22T13:54:41.010Z,70.28
2017-09-22T13:56:42.434Z,68.44
2017-09-22T13:58:43.914Z,68.77
2017-09-22T14:00:45.433Z,65.27
2017-09-22T14:02:46.860Z,66.71
2017-09-22T14:04:48.286Z,67.10
2017-09-22T14:06:49.723Z,66.71
2017-09-22T14:08:51.170Z,68.54
2017-09-22T14:10:52.612Z,68.64
2017-09-22T14:12:54.036Z,66.94
2017-09-22T14:14:55.466Z,67.33
2017-09-22T14:16:56.893Z,66.88
2017-09-22T14:18:58.321Z,64.28
2017-09-22T14:20:59.835Z,62.45
2017-09-22T14:23:01.300Z,63.79
2017-09-22T14:25:02.847Z,62.45
2017-09-22T14:27:04.340Z,62.76
2017-09-22T14:29:05.792Z,61.80
2017-09-22T14:31:07.227Z,61.06
2017-09-22T14:33:08.652Z,59.52
2017-09-22T14:35:10.136Z,60.00
2017-09-22T14:37:11.579Z,60.19
2017-09-22T14:39:54.002Z,60.74
2017-09-22T14:41:55.439Z,58.78
2017-09-22T14:43:56.862Z,61.58
2017-09-22T14:45:58.291Z,63.31
2017-09-22T14:47:59.743Z,64.95
2017-09-22T14:50:01.152Z,64.05
2017-09-22T14:52:02.582Z,63.47
2017-09-22T14:54:04.350Z,63.57
2017-09-22T14:56:05.773Z,62.22
2017-09-22T14:58:07.415Z,63.85
2017-09-22T15:00:08.834Z,64.63
2017-09-22T15:02:10.365Z,63.95
2017-09-22T15:04:11.761Z,63.38
2017-09-22T15:06:13.192Z,63.47
2017-09-22T15:08:14.627Z,63.98
2017-09-22T15:10:16.047Z,62.06
2017-09-22T15:12:17.480Z,62.63
2017-09-22T15:14:18.904Z,62.25
2017-09-22T15:16:20.330Z,62.06
2017-09-22T15:18:21.757Z,61.48
2017-09-22T15:20:23.187Z,63.12
2017-09-22T15:22:24.622Z,62.73
2017-09-22T15:24:26.049Z,63.79
2017-09-22T15:26:27.486Z,62.93
2017-09-22T15:28:28.937Z,62.70
2017-09-22T15:30:30.358Z,61.58
2017-09-22T15:32:31.799Z,61.38
2017-09-22T15:34:33.254Z,60.97
2017-09-22T15:36:34.749Z,62.12
2017-09-22T15:38:36.187Z,62.12
2017-09-22T15:40:37.609Z,62.03
2017-09-22T15:42:39.084Z,63.28
2017-09-22T15:44:40.512Z,64.43
2017-09-22T15:46:41.929Z,64.02
2017-09-22T15:48:43.364Z,63.25
2017-09-22T15:50:44.803Z,64.40
2017-09-22T15:52:46.240Z,64.02
2017-09-22T15:54:47.666Z,64.50
2017-09-22T15:57:30.093Z,65.17
2017-09-22T15:59:31.521Z,64.40
2017-09-22T16:01:32.956Z,64.98
2017-09-22T16:03:34.377Z,66.14
2017-09-22T16:05:35.918Z,65.94
2017-09-22T16:07:37.383Z,66.10
2017-09-22T16:09:38.811Z,67.55
2017-09-22T16:11:40.232Z,68.70
2017-09-22T16:13:41.694Z,67.45
2017-09-22T16:15:43.189Z,67.83
2017-09-22T16:17:44.614Z,68.60
2017-09-22T16:19:46.050Z,68.60
2017-09-22T16:21:47.508Z,69.28
2017-09-22T16:23:48.952Z,70.34
2017-09-22T16:25:50.378Z,68.70
2017-09-22T16:27:51.886Z,70.34
2017-09-22T16:29:53.399Z,69.18
2017-09-22T16:31:54.971Z,69.51
2017-09-22T16:33:56.443Z,69.28
2017-09-22T16:35:58.115Z,70.53
2017-09-22T16:37:59.809Z,68.51
2017-09-22T16:40:01.508Z,69.67
2017-09-22T16:42:03.127Z,70.24
2017-09-22T16:44:04.672Z,69.76
2017-09-22T16:46:06.154Z,69.67
2017-09-22T16:48:07.750Z,68.90
2017-09-22T16:50:09.202Z,69.44
2017-09-22T16:52:10.722Z,70.50
2017-09-22T16:54:12.252Z,71.36
2017-09-22T16:56:13.757Z,70.88
2017-09-22T16:58:15.250Z,71.17
2017-09-22T17:00:16.755Z,71.08
2017-09-22T17:02:18.314Z,71.46
2017-09-22T17:04:19.743Z,72.42
2017-09-22T17:06:21.251Z,73.00
2017-09-22T17:08:22.751Z,73.09
2017-09-22T17:10:24.318Z,72.03
2017-09-22T17:12:25.812Z,72.42
2017-09-22T17:14:27.318Z,73.06
2017-09-22T17:16:28.853Z,73.83
2017-09-22T17:18:30.317Z,73.73
2017-09-22T17:20:31.815Z,73.92
2017-09-22T17:22:33.246Z,73.38
2017-09-22T17:24:34.676Z,73.92
2017-09-22T17:26:36.176Z,74.30
2017-09-22T17:28:37.648Z,74.11
2017-09-22T17:30:39.164Z,74.40
2017-09-22T17:32:40.604Z,74.88
2017-09-22T17:34:42.053Z,74.21
2017-09-22T17:36:43.580Z,75.17
2017-09-22T17:38:45.207Z,75.37
2017-09-22T17:40:46.660Z,75.75
2017-09-22T17:42:48.259Z,75.37
2017-09-22T17:44:49.767Z,76.04
2017-09-22T17:46:51.248Z,75.46
2017-09-22T17:48:52.786Z,75.65
2017-09-22T17:50:54.286Z,75.75
2017-09-22T17:52:55.799Z,76.04
2017-09-22T17:54:57.314Z,76.42
2017-09-22T17:56:58.879Z,76.71
2017-09-22T17:59:00.383Z,76.48
2017-09-22T18:01:01.883Z,77.19
2017-09-22T18:03:03.391Z,78.06
2017-09-22T18:05:04.911Z,77.73
2017-09-22T18:07:06.415Z,77.73
2017-09-22T18:09:07.877Z,77.73
2017-09-22T18:11:09.355Z,78.40
2017-09-22T18:13:10.847Z,78.69
2017-09-22T18:15:12.350Z,78.21
2017-09-22T18:17:13.849Z,78.63
2017-09-22T18:19:56.260Z,78.59
2017-09-22T18:21:57.689Z,77.63
2017-09-22T18:23:59.111Z,77.25
2017-09-22T18:26:00.532Z,77.06
2017-09-22T18:28:01.960Z,77.63
2017-09-22T18:30:03.384Z,77.92
2017-09-22T18:32:04.803Z,77.53
2017-09-22T18:34:06.652Z,77.92
2017-09-22T18:36:08.276Z,78.69
2017-09-22T18:38:09.798Z,78.78
2017-09-22T18:40:11.172Z,79.27
2017-09-22T18:42:12.592Z,79.27
2017-09-22T18:44:14.038Z,79.27
2017-09-22T18:46:15.457Z,79.36
2017-09-22T18:48:16.890Z,79.17
2017-09-22T18:50:18.339Z,79.65
2017-09-22T18:52:19.858Z,79.75
2017-09-22T18:54:21.387Z,79.52
2017-09-22T18:56:22.824Z,79.61
2017-09-22T18:58:24.240Z,79.42
2017-09-22T19:00:25.653Z,80.09
2017-09-22T19:02:27.090Z,79.99
2017-09-22T19:04:28.517Z,79.99
2017-09-22T19:07:10.917Z,79.52
2017-09-22T19:09:12.750Z,79.99
2017-09-22T19:11:14.166Z,80.47
2017-09-22T19:13:15.573Z,79.99
2017-09-22T19:15:17.007Z,80.66
2017-09-22T19:17:18.433Z,80.38
2017-09-22T19:19:19.920Z,80.38
2017-09-22T19:21:21.425Z,80.86
2017-09-22T19:24:04.283Z,80.66
2017-09-22T19:26:05.688Z,80.96
2017-09-22T19:28:07.098Z,80.96
2017-09-22T19:30:08.523Z,81.24
2017-09-22T19:32:09.947Z,81.05
2017-09-22T19:34:11.559Z,81.34
2017-09-22T19:36:13.011Z,81.24
2017-09-22T19:38:14.434Z,81.43
2017-09-22T19:40:15.860Z,81.72
2017-09-22T19:42:17.300Z,81.72
2017-09-22T19:44:18.869Z,81.72
2017-09-22T19:46:20.402Z,81.43
2017-09-22T19:48:21.919Z,81.63
2017-09-22T19:50:23.443Z,81.63
2017-09-22T19:52:24.973Z,81.53
2017-09-22T19:54:26.469Z,81.63
2017-09-22T19:56:27.992Z,81.43
2017-09-22T19:58:29.487Z,81.34
2017-09-22T20:00:31.127Z,81.92
2017-09-22T20:02:32.594Z,82.01
2017-09-22T20:04:34.087Z,81.43
2017-09-22T20:06:35.604Z,81.34
2017-09-22T20:08:37.130Z,80.86
2017-09-22T20:10:38.607Z,80.76
2017-09-22T20:12:40.117Z,80.66
2017-09-22T20:14:41.640Z,80.86
2017-09-22T20:16:43.143Z,80.86
2017-09-22T20:18:44.597Z,80.86
2017-09-22T20:20:46.216Z,80.73
2017-09-22T20:22:47.717Z,80.63
2017-09-22T20:24:49.284Z,81.87
2017-09-22T20:26:50.789Z,81.87
2017-09-22T20:28:52.325Z,81.97
2017-09-22T20:30:53.829Z,82.26
2017-09-22T20:32:55.363Z,81.30
2017-09-22T20:34:56.939Z,81.87
2017-09-22T20:36:58.505Z,81.87
2017-09-22T20:38:59.972Z,81.68
2017-09-22T20:41:01.589Z,81.68
2017-09-22T20:43:03.078Z,82.16
2017-09-22T20:45:04.595Z,82.84
2017-09-22T20:47:06.117Z,82.84
2017-09-22T20:49:07.657Z,82.84
2017-09-22T20:51:09.178Z,83.03
2017-09-22T20:53:10.632Z,83.98
2017-09-22T20:55:12.186Z,83.98
2017-09-22T20:57:13.664Z,84.18
2017-09-22T20:59:15.216Z,84.08
2017-09-22T21:01:16.751Z,83.98
2017-09-22T21:03:18.307Z,84.56
2017-09-22T21:05:19.885Z,84.75
2017-09-22T21:07:21.398Z,84.18
2017-09-22T21:09:22.916Z,84.37
2017-09-22T21:11:24.514Z,84.56
2017-09-22T21:13:26.314Z,84.66
2017-09-22T21:15:28.116Z,84.47
2017-09-22T21:17:29.621Z,85.42
2017-09-22T21:19:31.153Z,85.14
2017-09-22T21:21:32.666Z,84.18
2017-09-22T21:23:34.182Z,84.27
2017-09-22T21:25:35.708Z,85.04
2017-09-22T21:27:37.209Z,85.04
2017-09-22T21:30:19.677Z,85.14
2017-09-22T21:32:21.099Z,85.14
2017-09-22T21:34:22.525Z,85.91
2017-09-22T21:36:23.941Z,86.19
2017-09-22T21:38:25.375Z,87.01
2017-09-22T21:40:26.784Z,87.01
2017-09-22T21:42:28.204Z,87.21
2017-09-22T21:44:29.653Z,86.82
2017-09-22T21:47:12.352Z,86.63
2017-09-22T21:49:13.721Z,87.30
2017-09-22T21:51:15.274Z,87.21
2017-09-22T21:53:16.744Z,87.30
2017-09-22T21:55:18.193Z,87.21
2017-09-22T21:57:19.618Z,87.11
2017-09-22T21:59:21.061Z,86.63
2017-09-22T22:01:22.481Z,87.11
2017-09-22T22:03:23.974Z,86.92
2017-09-22T22:05:25.447Z,87.01
2017-09-22T22:07:26.969Z,87.11
2017-09-22T22:09:28.478Z,87.40
2017-09-22T22:11:29.967Z,87.88
2017-09-22T22:13:31.533Z,87.40
2017-09-22T22:15:33.060Z,87.40
2017-09-22T22:17:34.696Z,87.21
2017-09-22T22:19:36.217Z,87.40
2017-09-22T22:21:37.666Z,87.88
2017-09-22T22:23:39.225Z,87.78
2017-09-22T22:25:40.737Z,87.49
2017-09-22T22:27:42.270Z,87.30
2017-09-22T22:29:43.804Z,87.11
2017-09-22T22:31:45.380Z,87.21
2017-09-22T22:33:46.929Z,87.98
2017-09-22T22:35:48.392Z,87.68
2017-09-22T22:37:49.921Z,87.88
2017-09-22T22:39:51.448Z,87.11
2017-09-22T22:41:52.960Z,87.30
2017-09-22T22:43:54.509Z,87.49
2017-09-22T22:45:55.998Z,87.40
2017-09-22T22:47:57.418Z,86.63
2017-09-22T22:49:58.861Z,86.82
2017-09-22T22:52:00.320Z,87.01
2017-09-22T22:54:01.735Z,86.30
2017-09-22T22:56:03.153Z,86.58
2017-09-22T22:58:04.629Z,86.58
2017-09-22T23:00:06.107Z,86.49
2017-09-22T23:02:07.524Z,85.92
2017-09-22T23:04:49.937Z,86.40
2017-09-22T23:06:51.758Z,86.40
2017-09-22T23:08:53.210Z,87.16
2017-09-22T23:10:54.735Z,86.88
2017-09-22T23:12:56.184Z,87.35
2017-09-22T23:14:57.607Z,87.45
2017-09-22T23:16:59.032Z,88.12
2017-09-22T23:19:00.552Z,88.22
2017-09-22T23:21:01.986Z,87.64
2017-09-22T23:23:03.451Z,88.02
2017-09-22T23:25:04.873Z,88.12
2017-09-22T23:27:06.302Z,88.12
2017-09-22T23:29:07.756Z,88.41
2017-09-22T23:31:09.184Z,88.12
2017-09-22T23:33:10.622Z,87.84
2017-09-22T23:35:12.050Z,87.64
2017-09-22T23:37:13.470Z,87.93
2017-09-22T23:39:14.960Z,87.84
2017-09-22T23:41:16.423Z,87.84
2017-09-22T23:43:17.850Z,88.02
2017-09-22T23:45:19.282Z,87.64
2017-09-22T23:47:20.706Z,87.84
2017-09-22T23:49:22.120Z,88.02
2017-09-22T23:51:23.554Z,87.84
2017-09-22T23:53:25.033Z,88.02
2017-09-22T23:55:26.461Z,87.74
2017-09-22T23:57:28.003Z,87.55
2017-09-22T23:59:29.463Z,87.45
